Startpagina
METAR-TAF:

METAR-TAF

Vliegvelden :

Manta, Ecuador

breedte: 00-57S, lengte: 080-41W, hoogte: 13 m

Actueel weer

Dit bericht is 51 minuten geleden gemaakt, om 07:00 UTC
Wind 5 kt uit het westen
Temperatuur 24°C
Vochtigheid 89%
Druk 1012 hPa
Zicht 10 km of meer
Geheel bewolkt op 2000 ft

METAR: SEMT 210700Z 26005KT 9999 OVC020 24/22 Q1012 RMK A2990

Tijdstip: 02:51 (07:51 UTC)

Verwachting

Dit bericht is 3 uur en het 21 minuten geleden gemaakt, om 04:30 UTC
Verwachting geldig van 21 om 06 UTC tot 22 om 06 UTC
Wind 4 kt uit het zuidzuidwesten
Zicht 10 km of meer
Gebroken wolken op 2000 ft
Wijzigt naar
van 21 om 15 UTC tot 21 om 16 UTC
Wind 10 kt uit het westen
Gebroken wolken op 2300 ft
Verspreide wolken op 10000 ft
Wijzigt naar
van 22 om 00 UTC tot 22 om 01 UTC
Wind 4 kt uit het zuidwesten
Gebroken wolken op 2000 ft

TAF: SEMT 210430Z 2106/2206 21004KT 9999 BKN020 BECMG 2115/2116 27010KT BKN023 SCT100 BECMG 2200/2201 22004KT BKN020 TX28/2120Z TN22/2110Z

Waarnemingen en weersverwachtingen van meer dan 4000 vliegvelden (METAR en TAF).

De beschikbare stations zijn de gele en rode punten op de kaart.

Ga met uw muis naar het station om de naam te zien.

Klik dan om waarnemingen en weersverwachtingen te zien.

kaart wijzigen: klik op de groene knoppen met een zwart kruis om in te zoomen, op de groene knop met een streepje om uit te zoomen of op de groene pijlen voor aangrenzende kaarten.


METAR-TAF: